createdAt,value
2019-03-15T00:01:51.247Z,6.60
2019-03-15T00:04:21.571Z,6.70
2019-03-15T00:06:51.973Z,6.70
2019-03-15T00:09:22.585Z,6.70
2019-03-15T00:11:53.025Z,6.70
2019-03-15T00:14:23.381Z,6.70
2019-03-15T00:16:53.720Z,6.70
2019-03-15T00:19:24.104Z,6.70
2019-03-15T00:21:54.475Z,6.70
2019-03-15T00:24:24.841Z,6.50
2019-03-15T00:26:55.159Z,6.40
2019-03-15T00:29:25.658Z,6.30
2019-03-15T00:31:55.995Z,6.20
2019-03-15T00:34:26.345Z,6.10
2019-03-15T00:36:56.711Z,6.10
2019-03-15T00:39:27.047Z,6.10
2019-03-15T00:41:57.421Z,6.10
2019-03-15T00:44:27.845Z,6.10
2019-03-15T00:46:58.189Z,6.00
2019-03-15T00:49:28.556Z,6.00
2019-03-15T00:51:58.881Z,5.90
2019-03-15T00:54:29.231Z,5.90
2019-03-15T00:56:59.619Z,5.90
2019-03-15T00:59:29.964Z,5.90
2019-03-15T01:02:00.295Z,5.90
2019-03-15T01:04:30.643Z,5.90
2019-03-15T01:07:00.958Z,5.90
2019-03-15T01:09:31.631Z,5.90
2019-03-15T01:12:01.975Z,5.90
2019-03-15T01:14:32.348Z,5.90
2019-03-15T01:17:02.671Z,5.90
2019-03-15T01:19:33.067Z,5.90
2019-03-15T01:22:03.461Z,5.90
2019-03-15T01:24:33.847Z,5.90
2019-03-15T01:27:04.178Z,5.80
2019-03-15T01:29:34.528Z,5.80
2019-03-15T01:32:04.931Z,5.80
2019-03-15T01:34:35.309Z,5.80
2019-03-15T01:37:05.716Z,5.80
2019-03-15T01:39:36.073Z,5.70
2019-03-15T01:42:06.527Z,5.70
2019-03-15T01:44:36.860Z,5.70
2019-03-15T01:47:07.240Z,5.70
2019-03-15T01:49:37.606Z,5.80
2019-03-15T01:52:07.929Z,5.80
2019-03-15T01:54:38.295Z,5.80
2019-03-15T01:57:08.620Z,5.70
2019-03-15T01:59:38.948Z,5.70
2019-03-15T02:02:09.328Z,5.70
2019-03-15T02:04:39.693Z,5.70
2019-03-15T02:07:10.065Z,5.70
2019-03-15T02:09:40.426Z,5.60
2019-03-15T02:12:10.788Z,5.60
2019-03-15T02:14:45.266Z,5.60
2019-03-15T02:17:15.886Z,5.60
2019-03-15T02:19:46.222Z,5.60
2019-03-15T02:22:16.550Z,5.60
2019-03-15T02:24:46.905Z,5.50
2019-03-15T02:27:17.263Z,5.50
2019-03-15T02:29:47.656Z,5.50
2019-03-15T02:32:18.015Z,5.50
2019-03-15T02:34:48.388Z,5.50
2019-03-15T02:37:18.723Z,5.40
2019-03-15T02:39:49.056Z,5.40
2019-03-15T02:42:19.438Z,5.40
2019-03-15T02:44:49.782Z,5.40
2019-03-15T02:47:20.438Z,5.40
2019-03-15T02:49:50.812Z,5.40
2019-03-15T02:52:21.189Z,5.50
2019-03-15T02:54:51.547Z,5.50
2019-03-15T02:57:21.906Z,5.60
2019-03-15T02:59:52.304Z,5.60
2019-03-15T03:02:22.656Z,5.60
2019-03-15T03:04:53.016Z,5.60
2019-03-15T03:07:23.382Z,5.60
2019-03-15T03:09:53.703Z,5.60
2019-03-15T03:12:24.061Z,5.60
2019-03-15T03:14:54.384Z,5.60
2019-03-15T03:17:24.724Z,5.60
2019-03-15T03:19:55.100Z,5.60
2019-03-15T03:22:25.479Z,5.60
2019-03-15T03:24:55.818Z,5.70
2019-03-15T03:27:26.178Z,5.70
2019-03-15T03:29:56.528Z,5.70
2019-03-15T03:32:26.874Z,5.80
2019-03-15T03:34:57.213Z,5.80
2019-03-15T03:37:27.579Z,5.80
2019-03-15T03:39:57.939Z,5.70
2019-03-15T03:42:28.317Z,5.70
2019-03-15T03:44:58.654Z,5.70
2019-03-15T03:47:28.975Z,5.70
2019-03-15T03:49:59.355Z,5.70
2019-03-15T03:52:29.698Z,5.70
2019-03-15T03:55:00.077Z,5.70
2019-03-15T03:57:30.479Z,5.70
2019-03-15T04:00:00.926Z,5.70
2019-03-15T04:02:32.994Z,5.70
2019-03-15T04:05:03.372Z,5.80
2019-03-15T04:07:33.763Z,5.80
2019-03-15T04:10:05.606Z,5.80
2019-03-15T04:12:36.210Z,5.80
2019-03-15T04:15:06.882Z,5.80
2019-03-15T04:17:37.191Z,5.80
2019-03-15T04:20:08.146Z,5.80
2019-03-15T04:22:38.546Z,5.90
2019-03-15T04:25:09.025Z,5.90
2019-03-15T04:27:39.355Z,5.90
2019-03-15T04:30:10.138Z,5.90
2019-03-15T04:32:40.505Z,5.90
2019-03-15T04:35:10.986Z,5.90
2019-03-15T04:37:41.322Z,5.90
2019-03-15T04:40:11.931Z,5.90
2019-03-15T04:42:42.300Z,6.00
2019-03-15T04:45:12.669Z,6.00
2019-03-15T04:47:43.650Z,6.00
2019-03-15T04:50:14.166Z,6.10
2019-03-15T04:52:44.589Z,6.10
2019-03-15T04:55:14.913Z,6.10
2019-03-15T04:57:45.284Z,6.10
2019-03-15T05:00:15.666Z,6.20
2019-03-15T05:02:46.019Z,6.20
2019-03-15T05:05:16.350Z,6.20
2019-03-15T05:07:46.741Z,6.20
2019-03-15T05:10:17.095Z,6.20
2019-03-15T05:12:47.467Z,6.20
2019-03-15T05:15:17.826Z,6.30
2019-03-15T05:17:48.229Z,6.30
2019-03-15T05:20:21.142Z,6.30
2019-03-15T05:22:50.760Z,6.30
2019-03-15T05:25:21.093Z,6.30
2019-03-15T05:27:51.428Z,6.30
2019-03-15T05:30:21.816Z,6.30
2019-03-15T05:32:52.156Z,6.40
2019-03-15T05:35:22.495Z,6.40
2019-03-15T05:37:52.825Z,6.40
2019-03-15T05:40:23.493Z,6.40
2019-03-15T05:42:53.813Z,6.40
2019-03-15T05:45:24.162Z,6.40
2019-03-15T05:47:54.541Z,6.50
2019-03-15T05:50:24.870Z,6.50
2019-03-15T05:52:55.219Z,6.50
2019-03-15T05:55:25.605Z,6.40
2019-03-15T05:57:55.937Z,6.40
2019-03-15T06:00:26.267Z,6.40
2019-03-15T06:02:56.651Z,6.40
2019-03-15T06:05:27.009Z,6.30
2019-03-15T06:07:57.332Z,6.20
2019-03-15T06:10:27.699Z,6.20
2019-03-15T06:12:58.064Z,6.10
2019-03-15T06:15:28.445Z,6.00
2019-03-15T06:17:59.987Z,5.90
2019-03-15T06:20:30.331Z,5.80
2019-03-15T06:23:00.745Z,5.70
2019-03-15T06:25:31.114Z,5.60
2019-03-15T06:28:01.487Z,5.50
2019-03-15T06:30:31.800Z,5.50
2019-03-15T06:33:02.275Z,5.40
2019-03-15T06:35:32.610Z,5.50
2019-03-15T06:38:08.279Z,5.40
2019-03-15T06:40:38.705Z,5.40
2019-03-15T06:43:13.288Z,5.40
2019-03-15T06:45:43.335Z,5.40
2019-03-15T06:48:13.726Z,5.30
2019-03-15T06:50:44.128Z,5.40
2019-03-15T06:53:16.660Z,5.40
2019-03-15T06:55:47.031Z,5.40
2019-03-15T06:58:17.395Z,5.50
2019-03-15T07:00:47.739Z,5.50
2019-03-15T07:03:18.095Z,5.50
2019-03-15T07:05:48.504Z,5.60
2019-03-15T07:08:18.849Z,5.70
2019-03-15T07:10:49.183Z,5.80
2019-03-15T07:13:19.535Z,5.80
2019-03-15T07:15:49.923Z,5.90
2019-03-15T07:18:20.654Z,5.90
2019-03-15T07:20:51.057Z,5.90
2019-03-15T07:23:21.427Z,6.00
2019-03-15T07:25:51.838Z,6.00
2019-03-15T07:28:22.167Z,6.00
2019-03-15T07:30:52.551Z,6.00
2019-03-15T07:33:23.280Z,6.00
2019-03-15T07:35:54.032Z,6.00
2019-03-15T07:38:24.363Z,6.00
2019-03-15T07:40:54.736Z,6.10
2019-03-15T07:43:25.054Z,6.10
2019-03-15T07:45:55.435Z,6.20
2019-03-15T07:48:26.990Z,6.20
2019-03-15T07:50:57.609Z,6.20
2019-03-15T07:53:27.962Z,6.20
2019-03-15T07:55:58.328Z,6.20
2019-03-15T07:58:28.717Z,6.20
2019-03-15T08:00:59.143Z,6.30
2019-03-15T08:03:29.526Z,6.20
2019-03-15T08:05:59.887Z,6.20
2019-03-15T08:08:30.358Z,6.20
2019-03-15T08:11:00.684Z,6.20
2019-03-15T08:13:31.098Z,6.20
2019-03-15T08:16:01.454Z,6.20
2019-03-15T08:18:31.802Z,6.20
2019-03-15T08:21:02.157Z,6.20
2019-03-15T08:23:32.550Z,6.20
2019-03-15T08:26:02.913Z,6.20
2019-03-15T08:28:33.272Z,6.20
2019-03-15T08:31:03.651Z,6.20
2019-03-15T08:33:34.030Z,6.20
2019-03-15T08:36:04.406Z,6.20
2019-03-15T08:38:46.639Z,6.10
2019-03-15T08:41:06.848Z,6.00
2019-03-15T08:43:37.195Z,6.00
2019-03-15T08:46:07.545Z,5.90
2019-03-15T08:48:37.892Z,5.90
2019-03-15T08:51:10.573Z,5.80
2019-03-15T08:53:40.446Z,5.70
2019-03-15T08:56:14.245Z,5.70
2019-03-15T08:58:42.943Z,5.70
2019-03-15T09:01:13.377Z,5.60
2019-03-15T09:03:43.795Z,5.60
2019-03-15T09:06:14.159Z,5.60
2019-03-15T09:08:44.506Z,5.60
2019-03-15T09:11:14.897Z,5.60
2019-03-15T09:13:45.271Z,5.60
2019-03-15T09:16:15.643Z,5.70
2019-03-15T09:18:46.007Z,5.70
2019-03-15T09:21:16.365Z,5.70
2019-03-15T09:23:46.702Z,5.70
2019-03-15T09:26:17.117Z,5.70
2019-03-15T09:28:47.475Z,5.70
2019-03-15T09:31:17.877Z,5.70
2019-03-15T09:33:48.227Z,5.60
2019-03-15T09:36:18.584Z,5.60
2019-03-15T09:38:48.951Z,5.60
2019-03-15T09:41:30.877Z,5.50
2019-03-15T09:43:51.408Z,5.60
2019-03-15T09:46:21.761Z,5.50
2019-03-15T09:48:52.199Z,5.50
2019-03-15T09:51:22.543Z,5.50
2019-03-15T09:53:52.914Z,5.50
2019-03-15T09:56:23.266Z,5.60
2019-03-15T09:58:53.776Z,5.50
2019-03-15T10:01:34.894Z,5.50
2019-03-15T10:03:56.266Z,5.50
2019-03-15T10:06:26.610Z,5.50
2019-03-15T10:08:57.005Z,5.50
2019-03-15T10:11:27.399Z,5.50
2019-03-15T10:13:57.751Z,5.50
2019-03-15T10:16:28.121Z,5.50
2019-03-15T10:18:58.488Z,5.50
2019-03-15T10:21:28.867Z,5.60
2019-03-15T10:23:59.298Z,5.60
2019-03-15T10:26:29.565Z,5.60
2019-03-15T10:28:59.935Z,5.60
2019-03-15T10:31:30.373Z,5.60
2019-03-15T10:34:00.767Z,5.60
2019-03-15T10:36:34.433Z,5.60
2019-03-15T10:39:03.669Z,5.60
2019-03-15T10:41:34.054Z,5.70
2019-03-15T10:44:04.470Z,5.70
2019-03-15T10:46:34.824Z,5.70
2019-03-15T10:49:05.233Z,5.70
2019-03-15T10:51:36.671Z,5.80
2019-03-15T10:54:07.047Z,5.80
2019-03-15T10:56:37.458Z,5.90
2019-03-15T10:59:07.784Z,5.90
2019-03-15T11:01:38.159Z,5.90
2019-03-15T11:04:08.614Z,6.00
2019-03-15T11:06:38.974Z,6.10
2019-03-15T11:09:09.446Z,6.10
2019-03-15T11:11:39.829Z,6.20
2019-03-15T11:14:10.198Z,6.20
2019-03-15T11:16:40.566Z,6.20
2019-03-15T11:19:15.536Z,6.30
2019-03-15T11:21:44.847Z,6.30
2019-03-15T11:24:15.247Z,6.40
2019-03-15T11:26:45.605Z,6.40
2019-03-15T11:29:15.973Z,6.40
2019-03-15T11:31:46.357Z,6.50
2019-03-15T11:34:16.717Z,6.60
2019-03-15T11:36:57.860Z,6.60
2019-03-15T11:39:19.155Z,6.70
2019-03-15T11:41:49.495Z,6.70
2019-03-15T11:44:19.861Z,6.80
2019-03-15T11:46:50.237Z,6.80
2019-03-15T11:49:20.593Z,6.90
2019-03-15T11:51:50.971Z,6.90
2019-03-15T11:54:21.326Z,7.00
2019-03-15T11:56:51.711Z,7.00
2019-03-15T11:59:22.095Z,7.10
2019-03-15T12:02:03.480Z,7.20
2019-03-15T12:04:24.565Z,7.20
2019-03-15T12:06:54.903Z,7.30
2019-03-15T12:09:25.331Z,7.30
2019-03-15T12:11:55.675Z,7.30
2019-03-15T12:14:26.071Z,7.40
2019-03-15T12:16:56.427Z,7.50
2019-03-15T12:19:26.832Z,7.50
2019-03-15T12:22:06.126Z,7.60
2019-03-15T12:24:29.288Z,7.70
2019-03-15T12:26:59.669Z,7.70
2019-03-15T12:29:30.007Z,7.80
2019-03-15T12:32:00.404Z,7.90
2019-03-15T12:34:30.718Z,8.00
2019-03-15T12:37:01.152Z,8.00
2019-03-15T12:39:31.521Z,8.10
2019-03-15T12:42:01.929Z,8.10
2019-03-15T12:44:32.293Z,8.20
2019-03-15T12:47:05.929Z,8.30
2019-03-15T12:49:34.731Z,8.30
2019-03-15T12:52:05.150Z,8.30
2019-03-15T12:54:35.518Z,8.40
2019-03-15T12:57:05.852Z,8.40
2019-03-15T12:59:36.201Z,8.50
2019-03-15T13:02:06.570Z,8.50
2019-03-15T13:04:36.964Z,8.50
2019-03-15T13:07:07.328Z,8.60
2019-03-15T13:09:37.725Z,8.60
2019-03-15T13:12:08.104Z,8.70
2019-03-15T13:14:38.462Z,8.70
2019-03-15T13:17:08.834Z,8.70
2019-03-15T13:19:39.206Z,8.70
2019-03-15T13:22:09.630Z,8.80
2019-03-15T13:24:39.946Z,8.80
2019-03-15T13:27:10.300Z,8.80
2019-03-15T13:29:40.688Z,8.80
2019-03-15T13:32:11.048Z,8.90
2019-03-15T13:34:41.410Z,8.90
2019-03-15T13:37:11.756Z,8.90
2019-03-15T13:39:42.135Z,8.90
2019-03-15T13:42:12.507Z,9.00
2019-03-15T13:44:42.873Z,9.00
2019-03-15T13:47:13.243Z,9.00
2019-03-15T13:49:43.708Z,9.00
2019-03-15T13:52:14.975Z,9.00
2019-03-15T13:54:45.379Z,9.00
2019-03-15T13:57:21.120Z,9.00
2019-03-15T13:59:47.899Z,9.10
2019-03-15T14:02:18.300Z,9.10
2019-03-15T14:04:48.656Z,9.00
2019-03-15T14:07:20.133Z,9.00
2019-03-15T14:09:50.972Z,9.10
2019-03-15T14:12:21.312Z,9.10
2019-03-15T14:14:51.763Z,9.10
2019-03-15T14:17:22.126Z,9.10
2019-03-15T14:19:52.819Z,9.10
2019-03-15T14:22:23.214Z,9.10
2019-03-15T14:24:53.813Z,9.20
2019-03-15T14:27:36.931Z,9.10
2019-03-15T14:29:56.938Z,9.10
2019-03-15T14:32:27.507Z,9.20
2019-03-15T14:34:57.912Z,9.20
2019-03-15T14:37:28.305Z,9.20
2019-03-15T14:39:58.882Z,9.20
2019-03-15T14:42:29.698Z,9.20
2019-03-15T14:45:00.214Z,9.20
2019-03-15T14:47:30.627Z,9.30
2019-03-15T14:50:01.013Z,9.30
2019-03-15T14:52:31.405Z,9.30
2019-03-15T14:55:01.779Z,9.30
2019-03-15T14:57:32.141Z,9.30
2019-03-15T15:00:02.585Z,9.30
2019-03-15T15:02:32.986Z,9.30
2019-03-15T15:05:03.380Z,9.30
2019-03-15T15:07:33.882Z,9.30
2019-03-15T15:10:04.399Z,9.40
2019-03-15T15:12:34.768Z,9.40
2019-03-15T15:15:06.350Z,9.40
2019-03-15T15:17:36.746Z,9.40
2019-03-15T15:20:07.558Z,9.40
2019-03-15T15:22:37.948Z,9.40
2019-03-15T15:25:08.704Z,9.40
2019-03-15T15:27:39.024Z,9.40
2019-03-15T15:30:10.273Z,9.40
2019-03-15T15:32:40.596Z,9.40
2019-03-15T15:35:11.616Z,9.40
2019-03-15T15:37:41.968Z,9.50
2019-03-15T15:40:12.402Z,9.50
2019-03-15T15:42:42.730Z,9.50
2019-03-15T15:45:13.812Z,9.50
2019-03-15T15:47:44.251Z,9.50
2019-03-15T15:50:15.293Z,9.50
2019-03-15T15:52:45.754Z,9.50
2019-03-15T15:55:16.257Z,9.60
2019-03-15T15:57:46.935Z,9.60
2019-03-15T16:00:18.749Z,9.60
2019-03-15T16:02:51.128Z,9.60
2019-03-15T16:05:21.504Z,9.60
2019-03-15T16:07:51.838Z,9.60
2019-03-15T16:10:22.228Z,9.60
2019-03-15T16:12:52.613Z,9.60
2019-03-15T16:15:22.986Z,9.60
2019-03-15T16:17:53.363Z,9.60
2019-03-15T16:20:23.759Z,9.60
2019-03-15T16:22:54.165Z,9.60
2019-03-15T16:25:24.587Z,9.60
2019-03-15T16:27:54.925Z,9.60
2019-03-15T16:30:25.275Z,9.60
2019-03-15T16:32:55.689Z,9.60
2019-03-15T16:35:26.097Z,9.60
2019-03-15T16:37:56.519Z,9.60
2019-03-15T16:40:26.849Z,9.60
2019-03-15T16:42:57.239Z,9.60
2019-03-15T16:45:27.652Z,9.60
2019-03-15T16:47:58.016Z,9.60
2019-03-15T16:50:28.415Z,9.60
2019-03-15T16:52:58.809Z,9.60
2019-03-15T16:55:29.212Z,9.60
2019-03-15T16:57:59.587Z,9.60
2019-03-15T17:00:29.998Z,9.60
2019-03-15T17:03:00.348Z,9.60
2019-03-15T17:05:30.739Z,9.60
2019-03-15T17:08:01.023Z,9.60
2019-03-15T17:10:31.348Z,9.60
2019-03-15T17:13:01.704Z,9.60
2019-03-15T17:15:32.103Z,9.60
2019-03-15T17:18:02.535Z,9.60
2019-03-15T17:20:32.913Z,9.60
2019-03-15T17:23:03.266Z,9.60
2019-03-15T17:25:33.637Z,9.60
2019-03-15T17:28:04.011Z,9.60
2019-03-15T17:30:34.866Z,9.60
2019-03-15T17:33:06.308Z,9.60
2019-03-15T17:35:37.010Z,9.60
2019-03-15T17:38:07.449Z,9.60
2019-03-15T17:40:37.808Z,9.60
2019-03-15T17:43:09.847Z,9.60
2019-03-15T17:45:40.298Z,9.60
2019-03-15T17:48:10.674Z,9.60
2019-03-15T17:50:41.068Z,9.60
2019-03-15T17:53:11.517Z,9.60
2019-03-15T17:55:41.871Z,9.60
2019-03-15T17:58:12.273Z,9.60
2019-03-15T18:00:44.436Z,9.60
2019-03-15T18:03:21.481Z,9.60
2019-03-15T18:05:47.453Z,9.60
2019-03-15T18:08:17.830Z,9.60
2019-03-15T18:10:48.225Z,9.60
2019-03-15T18:13:18.610Z,9.60
2019-03-15T18:15:48.958Z,9.60
2019-03-15T18:18:19.301Z,9.60
2019-03-15T18:20:49.706Z,9.60
2019-03-15T18:23:20.125Z,9.60
2019-03-15T18:25:50.517Z,9.60
2019-03-15T18:28:20.876Z,9.50
2019-03-15T18:30:51.262Z,9.60
2019-03-15T18:33:21.674Z,9.50
2019-03-15T18:35:52.039Z,9.50
2019-03-15T18:38:22.437Z,9.50
2019-03-15T18:40:52.823Z,9.50
2019-03-15T18:43:23.189Z,9.50
2019-03-15T18:45:53.544Z,9.50
2019-03-15T18:48:23.943Z,9.50
2019-03-15T18:50:54.306Z,9.50
2019-03-15T18:53:24.750Z,9.50
2019-03-15T18:55:55.116Z,9.60
2019-03-15T18:58:25.471Z,9.50
2019-03-15T19:00:55.904Z,9.50
2019-03-15T19:03:26.259Z,9.60
2019-03-15T19:05:57.222Z,9.60
2019-03-15T19:08:27.730Z,9.60
2019-03-15T19:10:58.283Z,9.60
2019-03-15T19:13:28.731Z,9.60
2019-03-15T19:15:59.210Z,9.70
2019-03-15T19:18:29.770Z,9.70
2019-03-15T19:21:00.245Z,9.70
2019-03-15T19:23:30.722Z,9.80
2019-03-15T19:26:04.111Z,9.80
2019-03-15T19:28:34.544Z,9.90
2019-03-15T19:31:04.956Z,9.90
2019-03-15T19:33:35.387Z,9.90
2019-03-15T19:36:05.779Z,10.00
2019-03-15T19:38:36.209Z,10.00
2019-03-15T19:41:06.747Z,10.00
2019-03-15T19:43:37.208Z,10.00
2019-03-15T19:46:13.895Z,10.10
2019-03-15T19:48:45.789Z,10.10
2019-03-15T19:51:16.615Z,10.10
2019-03-15T19:53:47.224Z,10.20
2019-03-15T19:56:23.309Z,10.20
2019-03-15T19:58:55.266Z,10.30
2019-03-15T20:01:28.808Z,10.30
2019-03-15T20:03:57.928Z,10.40
2019-03-15T20:06:28.371Z,10.40
2019-03-15T20:08:58.957Z,10.40
2019-03-15T20:11:29.498Z,10.50
2019-03-15T20:13:59.988Z,10.50
2019-03-15T20:16:30.372Z,10.50
2019-03-15T20:19:00.939Z,10.60
2019-03-15T20:21:31.409Z,10.60
2019-03-15T20:24:01.799Z,10.60
2019-03-15T20:26:41.524Z,10.70
2019-03-15T20:29:12.760Z,10.70
2019-03-15T20:31:52.396Z,10.80
2019-03-15T20:34:23.410Z,10.80
2019-03-15T20:36:54.965Z,10.80
2019-03-15T20:39:25.375Z,10.90
2019-03-15T20:41:55.862Z,10.80
2019-03-15T20:44:28.710Z,10.90
2019-03-15T20:46:58.541Z,10.90
2019-03-15T20:49:29.011Z,10.90
2019-03-15T20:51:59.653Z,10.90
2019-03-15T20:54:30.330Z,11.00
2019-03-15T20:57:00.847Z,10.90
2019-03-15T20:59:32.472Z,10.90
2019-03-15T21:02:02.891Z,11.00
2019-03-15T21:04:33.391Z,11.00
2019-03-15T21:07:13.563Z,11.00
2019-03-15T21:09:44.897Z,11.00
2019-03-15T21:12:15.344Z,11.00
2019-03-15T21:14:47.231Z,11.00
2019-03-15T21:17:17.752Z,11.00
2019-03-15T21:19:48.217Z,11.10
2019-03-15T21:22:18.653Z,11.10
2019-03-15T21:24:49.116Z,11.10
2019-03-15T21:27:19.528Z,11.10
2019-03-15T21:29:49.932Z,11.00
2019-03-15T21:32:20.456Z,11.00
2019-03-15T21:34:51.318Z,11.10
2019-03-15T21:37:21.687Z,11.10
2019-03-15T21:39:52.143Z,11.10
2019-03-15T21:42:22.542Z,11.10
2019-03-15T21:44:52.934Z,11.10
2019-03-15T21:47:23.325Z,11.20
2019-03-15T21:49:53.757Z,11.10
2019-03-15T21:52:24.108Z,11.10
2019-03-15T21:54:54.510Z,11.20
2019-03-15T21:57:24.892Z,11.20
2019-03-15T21:59:55.319Z,11.20
2019-03-15T22:02:25.713Z,11.10
2019-03-15T22:04:56.126Z,11.10
2019-03-15T22:07:26.483Z,11.00
2019-03-15T22:09:56.867Z,11.00
2019-03-15T22:12:27.286Z,11.00
2019-03-15T22:14:57.674Z,10.90
2019-03-15T22:17:28.072Z,10.90
2019-03-15T22:19:58.478Z,11.00
2019-03-15T22:22:28.904Z,11.00
2019-03-15T22:24:59.309Z,10.90
2019-03-15T22:27:29.679Z,11.00
2019-03-15T22:30:00.149Z,11.00
2019-03-15T22:32:30.556Z,10.90
2019-03-15T22:35:00.937Z,10.90
2019-03-15T22:37:31.354Z,10.90
2019-03-15T22:40:01.753Z,10.80
2019-03-15T22:42:32.159Z,10.80
2019-03-15T22:45:02.528Z,10.70
2019-03-15T22:47:33.061Z,10.70
2019-03-15T22:50:03.419Z,10.70
2019-03-15T22:52:33.932Z,10.70
2019-03-15T22:55:04.394Z,10.70
2019-03-15T22:57:34.811Z,10.70
2019-03-15T23:00:07.044Z,10.70
2019-03-15T23:02:37.431Z,10.70
2019-03-15T23:05:07.909Z,10.70
2019-03-15T23:07:38.343Z,10.80
2019-03-15T23:10:09.485Z,10.80
2019-03-15T23:12:43.043Z,10.80
2019-03-15T23:15:14.168Z,10.80
2019-03-15T23:17:44.523Z,10.90
2019-03-15T23:20:14.894Z,10.90
2019-03-15T23:22:45.348Z,10.90
2019-03-15T23:25:17.216Z,10.90
2019-03-15T23:27:47.641Z,10.80
2019-03-15T23:30:18.151Z,10.80
2019-03-15T23:32:48.534Z,10.80
2019-03-15T23:35:18.925Z,10.70
2019-03-15T23:37:49.319Z,10.80
2019-03-15T23:40:19.740Z,10.80
2019-03-15T23:42:50.151Z,10.80
2019-03-15T23:45:20.494Z,10.80
2019-03-15T23:47:50.891Z,10.90
2019-03-15T23:50:21.240Z,10.90
2019-03-15T23:52:53.438Z,11.00
2019-03-15T23:55:25.581Z,11.00
2019-03-15T23:57:55.976Z,11.00
